sensor_id;sensor_type;location;lat;lon;timestamp;temperature;humidity
14000;DHT22;7075;53.574;10.054;2023-02-20T00:01:18;6.00;99.90
14000;DHT22;7075;53.574;10.054;2023-02-20T00:03:44;6.10;99.90
14000;DHT22;7075;53.574;10.054;2023-02-20T00:06:13;6.00;99.90
14000;DHT22;7075;53.574;10.054;2023-02-20T00:08:38;6.00;99.90
14000;DHT22;7075;53.574;10.054;2023-02-20T00:11:04;6.00;99.90
14000;DHT22;7075;53.574;10.054;2023-02-20T00:13:30;6.00;99.90
14000;DHT22;7075;53.574;10.054;2023-02-20T00:15:56;6.00;99.90
14000;DHT22;7075;53.574;10.054;2023-02-20T00:18:21;6.00;99.90
14000;DHT22;7075;53.574;10.054;2023-02-20T00:20:47;6.00;99.90
14000;DHT22;7075;53.574;10.054;2023-02-20T00:23:13;6.10;99.90
14000;DHT22;7075;53.574;10.054;2023-02-20T00:25:38;6.00;99.90
14000;DHT22;7075;53.574;10.054;2023-02-20T00:28:04;6.00;99.90
14000;DHT22;7075;53.574;10.054;2023-02-20T00:30:29;6.00;99.90
14000;DHT22;7075;53.574;10.054;2023-02-20T00:35:23;5.90;99.90
14000;DHT22;7075;53.574;10.054;2023-02-20T00:37:49;5.90;99.90
14000;DHT22;7075;53.574;10.054;2023-02-20T00:40:17;6.00;99.90
14000;DHT22;7075;53.574;10.054;2023-02-20T00:42:43;6.00;99.90
14000;DHT22;7075;53.574;10.054;2023-02-20T00:45:10;6.00;99.90
14000;DHT22;7075;53.574;10.054;2023-02-20T00:47:35;6.00;99.90
14000;DHT22;7075;53.574;10.054;2023-02-20T00:50:01;6.00;99.90
14000;DHT22;7075;53.574;10.054;2023-02-20T00:52:27;6.00;99.90
14000;DHT22;7075;53.574;10.054;2023-02-20T00:54:52;6.00;99.90
14000;DHT22;7075;53.574;10.054;2023-02-20T00:57:18;6.00;99.90
14000;DHT22;7075;53.574;10.054;2023-02-20T00:59:43;6.00;99.90
14000;DHT22;7075;53.574;10.054;2023-02-20T01:02:09;6.00;99.90
14000;DHT22;7075;53.574;10.054;2023-02-20T01:04:35;6.00;99.90
14000;DHT22;7075;53.574;10.054;2023-02-20T01:07:01;6.10;99.90
14000;DHT22;7075;53.574;10.054;2023-02-20T01:09:26;6.10;99.90
14000;DHT22;7075;53.574;10.054;2023-02-20T01:11:53;6.10;99.90
14000;DHT22;7075;53.574;10.054;2023-02-20T01:14:19;6.10;99.90
14000;DHT22;7075;53.574;10.054;2023-02-20T01:19:13;6.20;99.90
14000;DHT22;7075;53.574;10.054;2023-02-20T01:21:38;6.10;99.90
14000;DHT22;7075;53.574;10.054;2023-02-20T01:24:04;6.20;99.90
14000;DHT22;7075;53.574;10.054;2023-02-20T01:26:30;6.20;99.90
14000;DHT22;7075;53.574;10.054;2023-02-20T01:28:56;6.20;99.90
14000;DHT22;7075;53.574;10.054;2023-02-20T01:31:21;6.20;99.90
14000;DHT22;7075;53.574;10.054;2023-02-20T01:33:47;6.20;99.90
14000;DHT22;7075;53.574;10.054;2023-02-20T01:36:12;6.20;99.90
14000;DHT22;7075;53.574;10.054;2023-02-20T01:38:39;6.20;99.90
14000;DHT22;7075;53.574;10.054;2023-02-20T01:41:06;6.30;99.90
14000;DHT22;7075;53.574;10.054;2023-02-20T01:43:31;6.30;99.90
14000;DHT22;7075;53.574;10.054;2023-02-20T01:48:52;6.30;99.90
14000;DHT22;7075;53.574;10.054;2023-02-20T01:51:21;6.30;99.90
14000;DHT22;7075;53.574;10.054;2023-02-20T01:53:51;6.30;99.90
14000;DHT22;7075;53.574;10.054;2023-02-20T01:56:20;6.30;99.90
14000;DHT22;7075;53.574;10.054;2023-02-20T01:58:50;6.30;99.90
14000;DHT22;7075;53.574;10.054;2023-02-20T02:01:20;6.30;99.90
14000;DHT22;7075;53.574;10.054;2023-02-20T02:03:55;6.40;99.90
14000;DHT22;7075;53.574;10.054;2023-02-20T02:06:28;6.40;99.90
14000;DHT22;7075;53.574;10.054;2023-02-20T02:08:58;6.40;99.90
14000;DHT22;7075;53.574;10.054;2023-02-20T02:11:30;6.40;99.90
14000;DHT22;7075;53.574;10.054;2023-02-20T02:13:59;6.40;99.90
14000;DHT22;7075;53.574;10.054;2023-02-20T02:25:04;6.50;99.90
14000;DHT22;7075;53.574;10.054;2023-02-20T02:33:14;6.60;99.90
14000;DHT22;7075;53.574;10.054;2023-02-20T02:36:15;6.60;99.90
14000;DHT22;7075;53.574;10.054;2023-02-20T02:47:21;6.60;99.90
14000;DHT22;7075;53.574;10.054;2023-02-20T02:50:16;6.70;99.90
14000;DHT22;7075;53.574;10.054;2023-02-20T02:52:43;6.70;99.90
14000;DHT22;7075;53.574;10.054;2023-02-20T02:55:22;6.70;99.90
14000;DHT22;7075;53.574;10.054;2023-02-20T02:57:52;6.70;99.90
14000;DHT22;7075;53.574;10.054;2023-02-20T03:00:26;6.60;99.90
14000;DHT22;7075;53.574;10.054;2023-02-20T03:06:05;6.60;99.90
14000;DHT22;7075;53.574;10.054;2023-02-20T03:08:55;6.60;99.90
14000;DHT22;7075;53.574;10.054;2023-02-20T03:11:26;6.60;99.90
14000;DHT22;7075;53.574;10.054;2023-02-20T03:14:02;6.60;99.90
14000;DHT22;7075;53.574;10.054;2023-02-20T03:19:40;6.60;99.90
14000;DHT22;7075;53.574;10.054;2023-02-20T03:22:23;6.70;99.90
14000;DHT22;7075;53.574;10.054;2023-02-20T03:24:53;6.70;99.90
14000;DHT22;7075;53.574;10.054;2023-02-20T03:27:28;6.70;99.90
14000;DHT22;7075;53.574;10.054;2023-02-20T03:29:57;6.70;99.90
14000;DHT22;7075;53.574;10.054;2023-02-20T03:32:26;6.70;99.90
14000;DHT22;7075;53.574;10.054;2023-02-20T03:35:12;6.70;99.90
14000;DHT22;7075;53.574;10.054;2023-02-20T03:37:59;6.80;99.90
14000;DHT22;7075;53.574;10.054;2023-02-20T03:40:45;6.70;99.90
14000;DHT22;7075;53.574;10.054;2023-02-20T03:43:30;6.80;99.90
14000;DHT22;7075;53.574;10.054;2023-02-20T03:46:01;6.70;99.90
14000;DHT22;7075;53.574;10.054;2023-02-20T03:49:04;6.70;99.90
14000;DHT22;7075;53.574;10.054;2023-02-20T03:51:31;6.70;99.90
14000;DHT22;7075;53.574;10.054;2023-02-20T03:54:15;6.70;99.90
14000;DHT22;7075;53.574;10.054;2023-02-20T03:56:43;6.70;99.90
14000;DHT22;7075;53.574;10.054;2023-02-20T03:59:23;6.70;99.90
14000;DHT22;7075;53.574;10.054;2023-02-20T04:01:55;6.80;99.90
14000;DHT22;7075;53.574;10.054;2023-02-20T04:04:39;6.80;99.90
14000;DHT22;7075;53.574;10.054;2023-02-20T04:07:14;6.80;99.90
14000;DHT22;7075;53.574;10.054;2023-02-20T04:09:43;6.80;99.90
14000;DHT22;7075;53.574;10.054;2023-02-20T04:12:31;6.80;99.90
14000;DHT22;7075;53.574;10.054;2023-02-20T04:14:59;6.80;99.90
14000;DHT22;7075;53.574;10.054;2023-02-20T04:17:34;6.80;99.90
14000;DHT22;7075;53.574;10.054;2023-02-20T04:20:01;6.80;99.90
14000;DHT22;7075;53.574;10.054;2023-02-20T04:22:30;6.80;99.90
14000;DHT22;7075;53.574;10.054;2023-02-20T04:28:19;6.90;99.90
14000;DHT22;7075;53.574;10.054;2023-02-20T04:30:45;6.90;99.90
14000;DHT22;7075;53.574;10.054;2023-02-20T04:33:13;6.90;99.90
14000;DHT22;7075;53.574;10.054;2023-02-20T04:35:39;6.80;99.90
14000;DHT22;7075;53.574;10.054;2023-02-20T04:38:05;6.80;99.90
14000;DHT22;7075;53.574;10.054;2023-02-20T04:40:33;6.80;99.90
14000;DHT22;7075;53.574;10.054;2023-02-20T04:42:58;6.90;99.90
14000;DHT22;7075;53.574;10.054;2023-02-20T04:45:24;6.90;99.90
14000;DHT22;7075;53.574;10.054;2023-02-20T04:47:50;6.90;99.90
14000;DHT22;7075;53.574;10.054;2023-02-20T04:50:22;6.90;99.90
14000;DHT22;7075;53.574;10.054;2023-02-20T04:52:48;6.90;99.90
14000;DHT22;7075;53.574;10.054;2023-02-20T04:55:14;6.90;99.90
14000;DHT22;7075;53.574;10.054;2023-02-20T04:57:40;6.90;99.90
14000;DHT22;7075;53.574;10.054;2023-02-20T05:00:06;6.90;99.90
14000;DHT22;7075;53.574;10.054;2023-02-20T05:02:37;6.90;99.90
14000;DHT22;7075;53.574;10.054;2023-02-20T05:05:03;6.90;99.90
14000;DHT22;7075;53.574;10.054;2023-02-20T05:07:29;6.90;99.90
14000;DHT22;7075;53.574;10.054;2023-02-20T05:09:54;6.90;99.90
14000;DHT22;7075;53.574;10.054;2023-02-20T05:12:20;6.90;99.90
14000;DHT22;7075;53.574;10.054;2023-02-20T05:14:46;6.90;99.90
14000;DHT22;7075;53.574;10.054;2023-02-20T05:17:11;6.90;99.90
14000;DHT22;7075;53.574;10.054;2023-02-20T05:19:37;6.90;99.90
14000;DHT22;7075;53.574;10.054;2023-02-20T05:22:05;6.90;99.90
14000;DHT22;7075;53.574;10.054;2023-02-20T05:24:49;6.90;99.90
14000;DHT22;7075;53.574;10.054;2023-02-20T05:27:18;6.90;99.90
14000;DHT22;7075;53.574;10.054;2023-02-20T05:29:49;7.00;99.90
14000;DHT22;7075;53.574;10.054;2023-02-20T05:32:18;6.90;99.90
14000;DHT22;7075;53.574;10.054;2023-02-20T05:34:44;6.90;99.90
14000;DHT22;7075;53.574;10.054;2023-02-20T05:37:12;6.90;99.90
14000;DHT22;7075;53.574;10.054;2023-02-20T05:39:37;6.90;99.90
14000;DHT22;7075;53.574;10.054;2023-02-20T05:42:04;6.90;99.90
14000;DHT22;7075;53.574;10.054;2023-02-20T05:44:30;6.90;99.90
14000;DHT22;7075;53.574;10.054;2023-02-20T05:46:55;6.90;99.90
14000;DHT22;7075;53.574;10.054;2023-02-20T05:49:21;7.00;99.90
14000;DHT22;7075;53.574;10.054;2023-02-20T05:51:47;7.00;99.90
14000;DHT22;7075;53.574;10.054;2023-02-20T05:54:23;7.00;99.90
14000;DHT22;7075;53.574;10.054;2023-02-20T05:56:50;7.00;99.90
14000;DHT22;7075;53.574;10.054;2023-02-20T05:59:20;7.00;99.90
14000;DHT22;7075;53.574;10.054;2023-02-20T06:01:46;7.00;99.90
14000;DHT22;7075;53.574;10.054;2023-02-20T06:04:15;7.00;99.90
14000;DHT22;7075;53.574;10.054;2023-02-20T06:06:41;7.00;99.90
14000;DHT22;7075;53.574;10.054;2023-02-20T06:09:08;7.00;99.90
14000;DHT22;7075;53.574;10.054;2023-02-20T06:11:38;7.00;99.90
14000;DHT22;7075;53.574;10.054;2023-02-20T06:14:05;7.00;99.90
14000;DHT22;7075;53.574;10.054;2023-02-20T06:16:32;7.10;99.90
14000;DHT22;7075;53.574;10.054;2023-02-20T06:18:59;7.00;99.90
14000;DHT22;7075;53.574;10.054;2023-02-20T06:21:26;7.00;99.90
14000;DHT22;7075;53.574;10.054;2023-02-20T06:23:53;7.00;99.90
14000;DHT22;7075;53.574;10.054;2023-02-20T06:26:20;7.10;99.90
14000;DHT22;7075;53.574;10.054;2023-02-20T06:28:46;7.10;99.90
14000;DHT22;7075;53.574;10.054;2023-02-20T06:31:20;7.10;99.90
14000;DHT22;7075;53.574;10.054;2023-02-20T06:33:46;7.10;99.90
14000;DHT22;7075;53.574;10.054;2023-02-20T06:36:24;7.10;99.90
14000;DHT22;7075;53.574;10.054;2023-02-20T06:38:50;7.10;99.90
14000;DHT22;7075;53.574;10.054;2023-02-20T06:41:15;7.10;99.90
14000;DHT22;7075;53.574;10.054;2023-02-20T06:46:07;7.10;99.90
14000;DHT22;7075;53.574;10.054;2023-02-20T06:48:32;7.10;99.90
14000;DHT22;7075;53.574;10.054;2023-02-20T06:50:58;7.10;99.90
14000;DHT22;7075;53.574;10.054;2023-02-20T06:53:23;7.10;99.90
14000;DHT22;7075;53.574;10.054;2023-02-20T06:55:49;7.20;99.90
14000;DHT22;7075;53.574;10.054;2023-02-20T06:58:16;7.20;99.90
14000;DHT22;7075;53.574;10.054;2023-02-20T07:00:42;7.20;99.90
14000;DHT22;7075;53.574;10.054;2023-02-20T07:03:07;7.20;99.90
14000;DHT22;7075;53.574;10.054;2023-02-20T07:05:33;7.20;99.90
14000;DHT22;7075;53.574;10.054;2023-02-20T07:07:58;7.30;99.90
14000;DHT22;7075;53.574;10.054;2023-02-20T07:10:24;7.30;99.90
14000;DHT22;7075;53.574;10.054;2023-02-20T07:12:50;7.30;99.90
14000;DHT22;7075;53.574;10.054;2023-02-20T07:15:15;7.30;99.90
14000;DHT22;7075;53.574;10.054;2023-02-20T07:17:41;7.30;99.90
14000;DHT22;7075;53.574;10.054;2023-02-20T07:20:07;7.30;99.90
14000;DHT22;7075;53.574;10.054;2023-02-20T07:22:32;7.40;99.90
14000;DHT22;7075;53.574;10.054;2023-02-20T07:24:58;7.40;99.90
14000;DHT22;7075;53.574;10.054;2023-02-20T07:27:23;7.40;99.90
14000;DHT22;7075;53.574;10.054;2023-02-20T07:29:50;7.40;99.90
14000;DHT22;7075;53.574;10.054;2023-02-20T07:32:16;7.40;99.90
14000;DHT22;7075;53.574;10.054;2023-02-20T07:34:48;7.40;99.90
14000;DHT22;7075;53.574;10.054;2023-02-20T07:37:14;7.40;99.90
14000;DHT22;7075;53.574;10.054;2023-02-20T07:39:40;7.50;99.90
14000;DHT22;7075;53.574;10.054;2023-02-20T07:42:06;7.50;99.90
14000;DHT22;7075;53.574;10.054;2023-02-20T07:44:31;7.50;99.90
14000;DHT22;7075;53.574;10.054;2023-02-20T07:46:57;7.50;99.90
14000;DHT22;7075;53.574;10.054;2023-02-20T07:49:23;7.40;99.90
14000;DHT22;7075;53.574;10.054;2023-02-20T07:51:49;7.50;99.90
14000;DHT22;7075;53.574;10.054;2023-02-20T07:54:15;7.50;99.90
14000;DHT22;7075;53.574;10.054;2023-02-20T07:56:41;7.50;99.90
14000;DHT22;7075;53.574;10.054;2023-02-20T07:59:06;7.50;99.90
14000;DHT22;7075;53.574;10.054;2023-02-20T08:01:34;7.50;99.90
14000;DHT22;7075;53.574;10.054;2023-02-20T08:04:00;7.50;99.90
14000;DHT22;7075;53.574;10.054;2023-02-20T08:06:25;7.60;99.90
14000;DHT22;7075;53.574;10.054;2023-02-20T08:08:53;7.50;99.90
14000;DHT22;7075;53.574;10.054;2023-02-20T08:11:20;7.50;99.90
14000;DHT22;7075;53.574;10.054;2023-02-20T08:13:46;7.50;99.90
14000;DHT22;7075;53.574;10.054;2023-02-20T08:16:12;7.50;99.90
14000;DHT22;7075;53.574;10.054;2023-02-20T08:18:38;7.60;99.90
14000;DHT22;7075;53.574;10.054;2023-02-20T08:21:04;7.60;99.90
14000;DHT22;7075;53.574;10.054;2023-02-20T08:23:29;7.60;99.90
14000;DHT22;7075;53.574;10.054;2023-02-20T08:25:55;7.60;99.90
14000;DHT22;7075;53.574;10.054;2023-02-20T08:28:21;7.60;99.90
14000;DHT22;7075;53.574;10.054;2023-02-20T08:30:47;7.60;99.90
14000;DHT22;7075;53.574;10.054;2023-02-20T08:33:12;7.60;99.90
14000;DHT22;7075;53.574;10.054;2023-02-20T08:35:38;7.60;99.90
14000;DHT22;7075;53.574;10.054;2023-02-20T08:38:06;7.60;99.90
14000;DHT22;7075;53.574;10.054;2023-02-20T08:40:32;7.60;99.90
14000;DHT22;7075;53.574;10.054;2023-02-20T08:42:58;7.60;99.90
14000;DHT22;7075;53.574;10.054;2023-02-20T08:45:24;7.70;99.90
14000;DHT22;7075;53.574;10.054;2023-02-20T08:47:55;7.70;99.90
14000;DHT22;7075;53.574;10.054;2023-02-20T08:50:21;7.70;99.90
14000;DHT22;7075;53.574;10.054;2023-02-20T08:52:46;7.70;99.90
14000;DHT22;7075;53.574;10.054;2023-02-20T08:55:12;7.70;99.90
14000;DHT22;7075;53.574;10.054;2023-02-20T08:57:42;7.80;99.90
14000;DHT22;7075;53.574;10.054;2023-02-20T09:00:08;7.80;99.90
14000;DHT22;7075;53.574;10.054;2023-02-20T09:02:34;7.70;99.90
14000;DHT22;7075;53.574;10.054;2023-02-20T09:04:59;7.80;99.90
14000;DHT22;7075;53.574;10.054;2023-02-20T09:07:25;7.80;99.90
14000;DHT22;7075;53.574;10.054;2023-02-20T09:09:50;7.80;99.90
14000;DHT22;7075;53.574;10.054;2023-02-20T09:12:16;7.80;99.90
14000;DHT22;7075;53.574;10.054;2023-02-20T09:14:42;7.90;99.90
14000;DHT22;7075;53.574;10.054;2023-02-20T09:17:08;7.90;99.90
14000;DHT22;7075;53.574;10.054;2023-02-20T09:19:34;7.90;99.90
14000;DHT22;7075;53.574;10.054;2023-02-20T09:22:00;7.80;99.90
14000;DHT22;7075;53.574;10.054;2023-02-20T09:24:26;7.80;99.90
14000;DHT22;7075;53.574;10.054;2023-02-20T09:26:59;7.80;99.90
14000;DHT22;7075;53.574;10.054;2023-02-20T09:29:25;7.80;99.90
14000;DHT22;7075;53.574;10.054;2023-02-20T09:31:50;7.80;99.90
14000;DHT22;7075;53.574;10.054;2023-02-20T09:34:16;7.80;99.90
14000;DHT22;7075;53.574;10.054;2023-02-20T09:36:41;7.80;99.90
14000;DHT22;7075;53.574;10.054;2023-02-20T09:39:07;7.80;99.90
14000;DHT22;7075;53.574;10.054;2023-02-20T09:41:56;7.80;99.90
14000;DHT22;7075;53.574;10.054;2023-02-20T09:44:42;7.80;99.90
14000;DHT22;7075;53.574;10.054;2023-02-20T09:47:29;7.80;99.90
14000;DHT22;7075;53.574;10.054;2023-02-20T09:50:03;7.90;99.90
14000;DHT22;7075;53.574;10.054;2023-02-20T09:52:33;7.80;99.90
14000;DHT22;7075;53.574;10.054;2023-02-20T09:55:13;7.80;99.90
14000;DHT22;7075;53.574;10.054;2023-02-20T09:57:40;7.80;99.90
14000;DHT22;7075;53.574;10.054;2023-02-20T10:00:19;7.90;99.90
14000;DHT22;7075;53.574;10.054;2023-02-20T10:02:55;7.90;99.90
14000;DHT22;7075;53.574;10.054;2023-02-20T10:05:27;7.90;99.90
14000;DHT22;7075;53.574;10.054;2023-02-20T10:07:53;8.00;99.90
14000;DHT22;7075;53.574;10.054;2023-02-20T10:24:49;8.20;99.90
14000;DHT22;7075;53.574;10.054;2023-02-20T10:27:22;8.20;99.90
14000;DHT22;7075;53.574;10.054;2023-02-20T10:29:50;8.30;99.90
14000;DHT22;7075;53.574;10.054;2023-02-20T10:35:08;8.40;99.90
14000;DHT22;7075;53.574;10.054;2023-02-20T10:37:45;8.60;99.90
14000;DHT22;7075;53.574;10.054;2023-02-20T10:40:23;8.80;99.90
14000;DHT22;7075;53.574;10.054;2023-02-20T10:48:12;9.00;99.90
14000;DHT22;7075;53.574;10.054;2023-02-20T10:54:06;9.00;99.90
14000;DHT22;7075;53.574;10.054;2023-02-20T10:56:47;9.10;99.90
14000;DHT22;7075;53.574;10.054;2023-02-20T10:59:27;9.10;99.90
14000;DHT22;7075;53.574;10.054;2023-02-20T11:01:57;9.00;99.90
14000;DHT22;7075;53.574;10.054;2023-02-20T11:04:29;9.00;99.90
14000;DHT22;7075;53.574;10.054;2023-02-20T11:07:00;8.90;99.90
14000;DHT22;7075;53.574;10.054;2023-02-20T11:09:30;8.90;99.90
14000;DHT22;7075;53.574;10.054;2023-02-20T11:11:59;8.90;99.90
14000;DHT22;7075;53.574;10.054;2023-02-20T11:14:42;9.00;99.90
14000;DHT22;7075;53.574;10.054;2023-02-20T11:17:09;9.00;99.90
14000;DHT22;7075;53.574;10.054;2023-02-20T11:19:49;9.00;99.90
14000;DHT22;7075;53.574;10.054;2023-02-20T11:22:17;9.00;99.90
14000;DHT22;7075;53.574;10.054;2023-02-20T11:24:50;9.00;99.90
14000;DHT22;7075;53.574;10.054;2023-02-20T11:27:21;9.00;99.90
14000;DHT22;7075;53.574;10.054;2023-02-20T11:30:03;9.00;99.90
14000;DHT22;7075;53.574;10.054;2023-02-20T11:32:37;9.00;99.90
14000;DHT22;7075;53.574;10.054;2023-02-20T11:46:11;9.20;99.90
14000;DHT22;7075;53.574;10.054;2023-02-20T11:48:38;9.20;99.90
14000;DHT22;7075;53.574;10.054;2023-02-20T11:51:43;9.20;99.90
14000;DHT22;7075;53.574;10.054;2023-02-20T11:56:57;9.40;99.90
14000;DHT22;7075;53.574;10.054;2023-02-20T11:59:29;9.30;99.90
14000;DHT22;7075;53.574;10.054;2023-02-20T12:04:41;9.40;99.90
14000;DHT22;7075;53.574;10.054;2023-02-20T12:09:50;9.40;99.90
14000;DHT22;7075;53.574;10.054;2023-02-20T12:12:17;9.50;99.90
14000;DHT22;7075;53.574;10.054;2023-02-20T12:14:50;9.40;99.90
14000;DHT22;7075;53.574;10.054;2023-02-20T12:17:58;9.50;99.90
14000;DHT22;7075;53.574;10.054;2023-02-20T12:20:25;9.50;99.90
14000;DHT22;7075;53.574;10.054;2023-02-20T12:23:38;9.50;99.90
14000;DHT22;7075;53.574;10.054;2023-02-20T12:26:45;9.50;99.90
14000;DHT22;7075;53.574;10.054;2023-02-20T12:29:18;9.60;99.90
14000;DHT22;7075;53.574;10.054;2023-02-20T12:35:09;9.60;99.90
14000;DHT22;7075;53.574;10.054;2023-02-20T12:41:06;9.70;99.90
14000;DHT22;7075;53.574;10.054;2023-02-20T12:46:36;9.70;99.90
14000;DHT22;7075;53.574;10.054;2023-02-20T12:49:21;9.70;99.90
14000;DHT22;7075;53.574;10.054;2023-02-20T12:57:23;9.70;99.90
14000;DHT22;7075;53.574;10.054;2023-02-20T12:59:57;9.70;99.90
14000;DHT22;7075;53.574;10.054;2023-02-20T13:02:36;9.80;99.90
14000;DHT22;7075;53.574;10.054;2023-02-20T13:05:06;9.80;99.90
14000;DHT22;7075;53.574;10.054;2023-02-20T13:10:33;9.80;99.90
14000;DHT22;7075;53.574;10.054;2023-02-20T13:12:59;9.80;99.90
14000;DHT22;7075;53.574;10.054;2023-02-20T13:15:40;9.80;99.90
14000;DHT22;7075;53.574;10.054;2023-02-20T13:18:21;10.10;99.90
14000;DHT22;7075;53.574;10.054;2023-02-20T13:21:15;10.20;99.90
14000;DHT22;7075;53.574;10.054;2023-02-20T13:23:41;10.20;99.90
14000;DHT22;7075;53.574;10.054;2023-02-20T13:28:52;10.00;99.90
14000;DHT22;7075;53.574;10.054;2023-02-20T13:31:21;10.00;99.90
14000;DHT22;7075;53.574;10.054;2023-02-20T13:36:36;10.00;99.90
14000;DHT22;7075;53.574;10.054;2023-02-20T13:42:23;9.90;99.90
14000;DHT22;7075;53.574;10.054;2023-02-20T13:44:49;10.00;99.90
14000;DHT22;7075;53.574;10.054;2023-02-20T13:57:49;10.00;99.90
14000;DHT22;7075;53.574;10.054;2023-02-20T14:00:27;10.00;99.90
14000;DHT22;7075;53.574;10.054;2023-02-20T14:02:54;10.00;99.90
14000;DHT22;7075;53.574;10.054;2023-02-20T14:05:31;10.00;99.90
14000;DHT22;7075;53.574;10.054;2023-02-20T14:07:57;10.00;99.90
14000;DHT22;7075;53.574;10.054;2023-02-20T14:10:30;10.00;99.90
14000;DHT22;7075;53.574;10.054;2023-02-20T14:13:09;10.00;99.90
14000;DHT22;7075;53.574;10.054;2023-02-20T14:15:51;10.00;99.90
14000;DHT22;7075;53.574;10.054;2023-02-20T14:18:27;10.00;99.90
14000;DHT22;7075;53.574;10.054;2023-02-20T14:21:13;10.00;99.90
14000;DHT22;7075;53.574;10.054;2023-02-20T14:23:40;10.00;99.90
14000;DHT22;7075;53.574;10.054;2023-02-20T14:26:25;10.00;99.90
14000;DHT22;7075;53.574;10.054;2023-02-20T14:28:53;10.00;99.90
14000;DHT22;7075;53.574;10.054;2023-02-20T14:31:25;10.00;99.90
14000;DHT22;7075;53.574;10.054;2023-02-20T14:33:57;10.00;99.90
14000;DHT22;7075;53.574;10.054;2023-02-20T14:41:37;10.10;99.90
14000;DHT22;7075;53.574;10.054;2023-02-20T14:44:09;10.10;99.90
14000;DHT22;7075;53.574;10.054;2023-02-20T14:46:38;10.10;99.90
14000;DHT22;7075;53.574;10.054;2023-02-20T14:49:12;10.10;99.90
14000;DHT22;7075;53.574;10.054;2023-02-20T14:51:39;10.10;99.90
14000;DHT22;7075;53.574;10.054;2023-02-20T14:54:23;10.10;99.90
14000;DHT22;7075;53.574;10.054;2023-02-20T14:56:50;10.00;99.90
14000;DHT22;7075;53.574;10.054;2023-02-20T15:01:52;10.00;99.90
14000;DHT22;7075;53.574;10.054;2023-02-20T15:04:18;10.10;99.90
14000;DHT22;7075;53.574;10.054;2023-02-20T15:06:46;10.10;99.90
14000;DHT22;7075;53.574;10.054;2023-02-20T15:09:13;10.10;99.90
14000;DHT22;7075;53.574;10.054;2023-02-20T15:11:51;10.10;99.90
14000;DHT22;7075;53.574;10.054;2023-02-20T15:14:25;10.10;99.90
14000;DHT22;7075;53.574;10.054;2023-02-20T15:17:23;10.00;99.90
14000;DHT22;7075;53.574;10.054;2023-02-20T15:19:49;10.10;99.90
14000;DHT22;7075;53.574;10.054;2023-02-20T15:22:25;10.10;99.90
14000;DHT22;7075;53.574;10.054;2023-02-20T15:24:51;10.10;99.90
14000;DHT22;7075;53.574;10.054;2023-02-20T15:27:21;10.10;99.90
14000;DHT22;7075;53.574;10.054;2023-02-20T15:30:13;10.00;99.90
14000;DHT22;7075;53.574;10.054;2023-02-20T15:32:41;10.00;99.90
14000;DHT22;7075;53.574;10.054;2023-02-20T15:35:16;9.90;99.90
14000;DHT22;7075;53.574;10.054;2023-02-20T15:37:42;9.80;99.90
14000;DHT22;7075;53.574;10.054;2023-02-20T15:40:24;9.70;99.90
14000;DHT22;7075;53.574;10.054;2023-02-20T15:42:51;9.70;99.90
14000;DHT22;7075;53.574;10.054;2023-02-20T15:45:28;9.60;99.90
14000;DHT22;7075;53.574;10.054;2023-02-20T15:47:55;9.60;99.90
14000;DHT22;7075;53.574;10.054;2023-02-20T15:50:21;9.60;99.90
14000;DHT22;7075;53.574;10.054;2023-02-20T15:52:47;9.50;99.90
14000;DHT22;7075;53.574;10.054;2023-02-20T15:55:15;9.50;99.90
14000;DHT22;7075;53.574;10.054;2023-02-20T15:57:43;9.50;99.90
14000;DHT22;7075;53.574;10.054;2023-02-20T16:00:24;9.40;99.90
14000;DHT22;7075;53.574;10.054;2023-02-20T16:02:51;9.40;99.90
14000;DHT22;7075;53.574;10.054;2023-02-20T16:05:16;9.40;99.90
14000;DHT22;7075;53.574;10.054;2023-02-20T16:07:42;9.40;99.90
14000;DHT22;7075;53.574;10.054;2023-02-20T16:10:09;9.40;99.90
14000;DHT22;7075;53.574;10.054;2023-02-20T16:12:36;9.30;99.90
14000;DHT22;7075;53.574;10.054;2023-02-20T16:15:03;9.40;99.90
14000;DHT22;7075;53.574;10.054;2023-02-20T16:17:32;9.30;99.90
14000;DHT22;7075;53.574;10.054;2023-02-20T16:19:58;9.30;99.90
14000;DHT22;7075;53.574;10.054;2023-02-20T16:22:23;9.30;99.90
14000;DHT22;7075;53.574;10.054;2023-02-20T16:24:50;9.30;99.90
14000;DHT22;7075;53.574;10.054;2023-02-20T16:27:26;9.30;99.90
14000;DHT22;7075;53.574;10.054;2023-02-20T16:29:54;9.30;99.90
14000;DHT22;7075;53.574;10.054;2023-02-20T16:32:23;9.30;99.90
14000;DHT22;7075;53.574;10.054;2023-02-20T16:34:49;9.20;99.90
14000;DHT22;7075;53.574;10.054;2023-02-20T16:37:15;9.20;99.90
14000;DHT22;7075;53.574;10.054;2023-02-20T16:39:41;9.20;99.90
14000;DHT22;7075;53.574;10.054;2023-02-20T16:42:27;9.20;99.90
14000;DHT22;7075;53.574;10.054;2023-02-20T16:44:54;9.20;99.90
14000;DHT22;7075;53.574;10.054;2023-02-20T16:47:23;9.20;99.90
14000;DHT22;7075;53.574;10.054;2023-02-20T16:49:49;9.20;99.90
14000;DHT22;7075;53.574;10.054;2023-02-20T16:52:38;9.10;99.90
14000;DHT22;7075;53.574;10.054;2023-02-20T16:55:09;9.20;99.90
14000;DHT22;7075;53.574;10.054;2023-02-20T16:57:41;9.10;99.90
14000;DHT22;7075;53.574;10.054;2023-02-20T17:00:06;9.10;99.90
14000;DHT22;7075;53.574;10.054;2023-02-20T17:02:32;9.10;99.90
14000;DHT22;7075;53.574;10.054;2023-02-20T17:04:59;9.10;99.90
14000;DHT22;7075;53.574;10.054;2023-02-20T17:07:25;9.10;99.90
14000;DHT22;7075;53.574;10.054;2023-02-20T17:09:52;9.10;99.90
14000;DHT22;7075;53.574;10.054;2023-02-20T17:12:20;9.10;99.90
14000;DHT22;7075;53.574;10.054;2023-02-20T17:14:46;9.10;99.90
14000;DHT22;7075;53.574;10.054;2023-02-20T17:17:13;9.10;99.90
14000;DHT22;7075;53.574;10.054;2023-02-20T17:19:40;9.10;99.90
14000;DHT22;7075;53.574;10.054;2023-02-20T17:22:07;9.10;99.90
14000;DHT22;7075;53.574;10.054;2023-02-20T17:24:34;9.00;99.90
14000;DHT22;7075;53.574;10.054;2023-02-20T17:27:00;9.00;99.90
14000;DHT22;7075;53.574;10.054;2023-02-20T17:29:27;9.10;99.90
14000;DHT22;7075;53.574;10.054;2023-02-20T17:31:53;9.10;99.90
14000;DHT22;7075;53.574;10.054;2023-02-20T17:34:19;9.00;99.90
14000;DHT22;7075;53.574;10.054;2023-02-20T17:36:45;9.00;99.90
14000;DHT22;7075;53.574;10.054;2023-02-20T17:39:15;9.00;99.90
14000;DHT22;7075;53.574;10.054;2023-02-20T17:41:42;9.00;99.90
14000;DHT22;7075;53.574;10.054;2023-02-20T17:44:07;9.10;99.90
14000;DHT22;7075;53.574;10.054;2023-02-20T17:46:33;9.20;99.90
14000;DHT22;7075;53.574;10.054;2023-02-20T17:48:58;9.20;99.90
14000;DHT22;7075;53.574;10.054;2023-02-20T17:51:24;9.30;99.90
14000;DHT22;7075;53.574;10.054;2023-02-20T17:53:50;9.20;99.90
14000;DHT22;7075;53.574;10.054;2023-02-20T17:56:16;9.10;99.90
14000;DHT22;7075;53.574;10.054;2023-02-20T17:58:43;9.10;99.90
14000;DHT22;7075;53.574;10.054;2023-02-20T18:01:09;9.10;99.90
14000;DHT22;7075;53.574;10.054;2023-02-20T18:03:35;9.10;99.90
14000;DHT22;7075;53.574;10.054;2023-02-20T18:06:02;9.10;99.90
14000;DHT22;7075;53.574;10.054;2023-02-20T18:08:27;9.00;99.90
14000;DHT22;7075;53.574;10.054;2023-02-20T18:10:53;9.00;99.90
14000;DHT22;7075;53.574;10.054;2023-02-20T18:13:19;9.00;99.90
14000;DHT22;7075;53.574;10.054;2023-02-20T18:15:44;9.00;99.90